ANZAI, 仕事

ごめんやっぱLA嫌いかも

KLAX 101153Z 00000KT 1/16SM FG VV001 12/12 A2998

い、、、いってきます(; ̄ェ ̄)

 

 

安西副操縦士のログブック | パイロット ブログ

Share on LinkedIn
LINEで送る

2015-12-11 | Posted in ANZAI, 仕事3 Comments » 

コメント3件

 ミー | 2015.12.11 0:26

安西様

こんばんは(^ー^*)
うふ♡
キライなどと仰らずに頑張って下さいね(*´ω`pq゛

モニターさせて頂きます(ΦωΦ) 笑

 gennai04 | 2015.12.11 0:50

石原裕次郎の世界でしょうか。
最近HFでサンフランシスコの管制が聞こえます。落ち着いた女性の声で。
ファンになりそうです(笑)

 トニー師匠 | 2015.12.11 4:06

行ってきますって、、、、行けないじゃん。

Comment





Comment